Time;durP1;ratioP1;P1;durP2;ratioP2;P2;SDS_P1;SDS_P2;PMS_P1;PMS_P2;Temp;Humidity;BMP_temperature;BMP_pressure;BME280_temperature;BME280_humidity;BME280_pressure;Samples;Min_cycle;Max_cycle;Signal;HPM_P1;HPM_P2
2021/09/25 00:05:50;;;;;;;;;;;;;;;;;;;;;
2021/09/25 00:14:30;;;;;;;;;;;17.30;99.90;;;;;;5071814;28;20534;-89
2021/09/25 00:17:18;;;;;;;;;;;17.20;99.90;;;;;;5077700;28;19982;-89
2021/09/25 00:20:00;;;;;;;;;;;17.00;99.90;;;;;;5077494;28;19974;-89
2021/09/25 00:22:41;;;;;;;;;;;;;;;;;;;;;
2021/09/25 00:25:42;;;;;;;;;;;17.30;99.90;;;;;;5078576;28;20391;-88
2021/09/25 00:28:17;;;;;;;;;;;17.30;99.90;;;;;;5077672;28;20014;-89
2021/09/25 00:34:08;;;;;;;;;;;17.00;99.90;;;;;;5095593;28;19960;-88
2021/09/25 00:36:56;;;;;;;;;;;17.50;99.90;;;;;;5099083;28;20029;-88
2021/09/25 00:39:34;;;;;;;;;;;17.60;99.90;;;;;;5098829;28;20018;-88
2021/09/25 00:45:22;;;;;;;;;;;17.30;99.90;;;;;;5078354;28;19963;-88
2021/09/25 00:48:24;;;;;;;;;;;;;;;;;;;;;
2021/09/25 00:50:54;;;;;;;;;;;15.90;99.90;;;;;;5083051;28;20404;-89
2021/09/25 00:53:40;;;;;;;;;;;17.10;99.90;;;;;;5080467;28;20545;-89
2021/09/25 00:56:25;;;;;;;;;;;17.30;99.90;;;;;;5078793;28;19993;-89
2021/09/25 00:59:18;;;;;;;;;;;17.00;99.90;;;;;;5078437;28;20028;-89
2021/09/25 01:04:50;;;;;;;;;;;17.10;99.90;;;;;;5096265;28;19940;-89
2021/09/25 01:07:33;;;;;;;;;;;17.40;99.90;;;;;;5079002;28;19933;-89
2021/09/25 01:10:12;;;;;;;;;;;17.20;99.90;;;;;;5075914;28;19958;-89
2021/09/25 01:12:54;;;;;;;;;;;17.20;99.90;;;;;;5077146;28;19948;-89
2021/09/25 01:15:31;;;;;;;;;;;18.00;99.90;;;;;;5090860;28;19965;-89
2021/09/25 01:18:14;;;;;;;;;;;17.10;99.90;;;;;;5077015;28;20033;-89
2021/09/25 01:23:45;;;;;;;;;;;17.20;99.90;;;;;;5089631;28;19946;-90
2021/09/25 01:26:15;;;;;;;;;;;18.30;99.90;;;;;;5089562;28;19942;-89
2021/09/25 01:29:11;;;;;;;;;;;17.20;99.90;;;;;;5076982;28;19956;-90
2021/09/25 01:34:54;;;;;;;;;;;;;;;;;;;;;
2021/09/25 01:37:34;;;;;;;;;;;16.70;99.90;;;;;;5060154;28;19938;-89
2021/09/25 01:43:01;;;;;;;;;;;17.30;99.90;;;;;;5052504;28;20401;-89
2021/09/25 01:51:30;;;;;;;;;;;19.40;99.90;;;;;;5075382;28;19940;-89
2021/09/25 01:54:09;;;;;;;;;;;17.20;99.90;;;;;;5076517;28;20001;-89
2021/09/25 02:02:41;;;;;;;;;;;;;;;;;;;;;
2021/09/25 02:05:32;;;;;;;;;;;17.20;99.90;;;;;;5080492;28;19971;-89
2021/09/25 02:10:47;;;;;;;;;;;19.10;99.90;;;;;;5144442;22;20342;-89
2021/09/25 02:13:49;;;;;;;;;;;19.30;99.90;;;;;;5075327;28;20297;-89
2021/09/25 02:16:33;;;;;;;;;;;17.50;99.90;;;;;;5074651;28;19988;-89
2021/09/25 02:22:12;;;;;;;;;;;16.90;99.90;;;;;;5073135;28;19920;-89
2021/09/25 02:28:26;;;;;;;;;;;;;;;;;;;;;
2021/09/25 02:34:06;;;;;;;;;;;17.30;99.90;;;;;;5062334;28;20326;-90
2021/09/25 02:39:52;;;;;;;;;;;16.10;99.90;;;;;;5081729;28;19961;-89
2021/09/25 02:43:05;;;;;;;;;;;17.30;99.90;;;;;;5012156;28;20430;-90
2021/09/25 02:46:04;;;;;;;;;;;18.60;99.90;;;;;;4998703;28;19949;-89
2021/09/25 02:54:54;;;;;;;;;;;17.50;99.90;;;;;;5071127;28;19995;-90
2021/09/25 03:09:06;;;;;;;;;;;17.30;99.90;;;;;;5029556;28;20077;-88
2021/09/25 03:14:29;;;;;;;;;;;17.20;99.90;;;;;;5043004;28;20048;-88
2021/09/25 03:17:24;;;;;;;;;;;17.20;99.90;;;;;;5044421;28;20119;-88
2021/09/25 03:22:54;;;;;;;;;;;17.20;99.90;;;;;;5036302;28;19939;-89
2021/09/25 03:25:48;;;;;;;;;;;17.10;99.90;;;;;;5085061;28;19967;-89
2021/09/25 03:31:12;;;;;;;;;;;16.10;99.90;;;;;;5078030;28;19937;-89
2021/09/25 03:33:43;;;;;;;;;;;19.50;99.90;;;;;;5094717;28;19970;-89
2021/09/25 03:36:22;;;;;;;;;;;17.20;99.90;;;;;;5078687;28;20376;-89
2021/09/25 03:38:52;;;;;;;;;;;16.50;99.90;;;;;;5080856;28;19960;-88
2021/09/25 03:47:42;;;;;;;;;;;17.20;99.90;;;;;;5076783;28;19944;-89
2021/09/25 03:50:44;;;;;;;;;;;;;;;;;;;;;
2021/09/25 03:59:09;;;;;;;;;;;17.50;99.90;;;;;;5085672;28;19956;-89
2021/09/25 04:01:37;;;;;;;;;;;19.20;99.90;;;;;;5076944;28;19937;-89
2021/09/25 04:04:11;;;;;;;;;;;19.50;99.90;;;;;;5086703;28;19947;-89
2021/09/25 04:06:40;;;;;;;;;;;17.20;99.90;;;;;;5076946;28;19974;-89
2021/09/25 04:09:24;;;;;;;;;;;17.20;99.90;;;;;;5082124;28;19942;-89
2021/09/25 04:12:01;;;;;;;;;;;17.90;99.90;;;;;;5087107;28;19928;-89
2021/09/25 04:14:31;;;;;;;;;;;17.30;99.90;;;;;;5090248;28;19949;-89
2021/09/25 04:17:07;;;;;;;;;;;19.40;99.90;;;;;;5092550;28;19939;-89
2021/09/25 04:19:48;;;;;;;;;;;15.00;99.90;;;;;;5085720;28;20426;-89
2021/09/25 04:25:03;;;;;;;;;;;17.40;99.90;;;;;;5086300;28;19921;-89
2021/09/25 04:27:59;;;;;;;;;;;17.20;99.90;;;;;;5081567;28;20383;-90
2021/09/25 04:30:25;;;;;;;;;;;17.10;99.90;;;;;;5113527;22;19987;-87
2021/09/25 04:32:52;;;;;;;;;;;17.10;99.90;;;;;;5082427;28;19946;-86
2021/09/25 04:35:20;;;;;;;;;;;17.00;99.90;;;;;;5091337;28;19952;-86
2021/09/25 04:37:47;;;;;;;;;;;17.00;99.90;;;;;;5097771;28;19929;-87
2021/09/25 04:40:13;;;;;;;;;;;16.90;99.90;;;;;;5096507;28;19965;-86
2021/09/25 04:42:40;;;;;;;;;;;16.90;99.90;;;;;;5093016;28;19944;-86
2021/09/25 04:45:07;;;;;;;;;;;16.90;99.90;;;;;;5096221;28;19942;-87
2021/09/25 04:47:33;;;;;;;;;;;16.90;99.90;;;;;;5092072;28;19958;-87
2021/09/25 04:49:59;;;;;;;;;;;16.80;99.90;;;;;;5096670;28;19942;-86
2021/09/25 04:52:27;;;;;;;;;;;16.70;99.90;;;;;;5100614;28;19963;-86
2021/09/25 04:54:54;;;;;;;;;;;16.50;99.90;;;;;;5100405;28;19946;-86
2021/09/25 04:57:20;;;;;;;;;;;16.50;99.90;;;;;;5100320;28;19939;-86
2021/09/25 04:59:47;;;;;;;;;;;16.40;99.90;;;;;;5099818;28;19945;-86
2021/09/25 05:02:13;;;;;;;;;;;16.40;99.90;;;;;;5100596;28;19927;-86
2021/09/25 05:04:40;;;;;;;;;;;16.30;99.90;;;;;;5100508;28;19968;-86
2021/09/25 05:07:06;;;;;;;;;;;16.30;99.90;;;;;;5100328;28;19928;-86
2021/09/25 05:09:34;;;;;;;;;;;16.30;99.90;;;;;;5090453;28;19932;-87
2021/09/25 05:12:00;;;;;;;;;;;16.20;99.90;;;;;;5084066;28;20394;-86
2021/09/25 05:14:27;;;;;;;;;;;16.20;99.90;;;;;;5083028;28;20404;-87
2021/09/25 05:16:54;;;;;;;;;;;16.10;99.90;;;;;;5083398;28;20002;-86
2021/09/25 05:19:20;;;;;;;;;;;16.10;99.90;;;;;;5083864;28;20347;-87
2021/09/25 05:21:47;;;;;;;;;;;16.10;99.90;;;;;;5091664;28;19960;-87
2021/09/25 05:24:13;;;;;;;;;;;16.10;99.90;;;;;;5086611;28;19945;-87
2021/09/25 05:26:42;;;;;;;;;;;16.10;99.90;;;;;;5085855;28;19942;-86
2021/09/25 05:29:09;;;;;;;;;;;16.00;99.90;;;;;;5084259;28;20381;-87
2021/09/25 05:31:35;;;;;;;;;;;16.00;99.90;;;;;;5092442;28;19940;-87
2021/09/25 05:34:03;;;;;;;;;;;16.10;99.90;;;;;;5093509;28;19946;-86
2021/09/25 05:36:29;;;;;;;;;;;16.10;99.90;;;;;;5089527;28;19940;-86
2021/09/25 05:38:58;;;;;;;;;;;16.20;99.90;;;;;;5093334;28;20022;-87
2021/09/25 05:41:24;;;;;;;;;;;16.20;99.90;;;;;;5093109;28;19975;-87
2021/09/25 05:43:55;;;;;;;;;;;16.20;99.90;;;;;;5083431;28;19941;-86
2021/09/25 05:46:21;;;;;;;;;;;16.20;99.90;;;;;;5082713;28;19939;-87
2021/09/25 05:48:51;;;;;;;;;;;16.30;99.90;;;;;;5083094;28;19941;-86
2021/09/25 05:51:18;;;;;;;;;;;16.30;99.90;;;;;;5082523;28;19945;-86
2021/09/25 05:53:44;;;;;;;;;;;16.40;99.90;;;;;;5084773;28;19950;-87
2021/09/25 05:56:11;;;;;;;;;;;16.40;99.90;;;;;;5093288;28;19954;-86
2021/09/25 05:58:37;;;;;;;;;;;16.40;99.90;;;;;;5098540;28;19942;-85
2021/09/25 06:01:05;;;;;;;;;;;16.40;99.90;;;;;;5098993;28;19929;-86
2021/09/25 06:03:31;;;;;;;;;;;16.40;99.90;;;;;;5094422;28;19963;-86
2021/09/25 06:05:58;;;;;;;;;;;16.50;99.90;;;;;;5086037;28;19964;-85
2021/09/25 06:08:24;;;;;;;;;;;16.50;99.90;;;;;;5086397;28;19939;-86
2021/09/25 06:10:51;;;;;;;;;;;16.40;99.90;;;;;;5085347;28;20022;-86
2021/09/25 06:13:17;;;;;;;;;;;16.50;99.90;;;;;;5085400;28;19942;-86
2021/09/25 06:15:45;;;;;;;;;;;16.50;99.90;;;;;;5095680;28;19942;-84
2021/09/25 06:18:13;;;;;;;;;;;16.50;99.90;;;;;;5096921;28;19997;-85
2021/09/25 06:20:40;;;;;;;;;;;16.50;99.90;;;;;;5097200;28;19960;-86
2021/09/25 06:23:06;;;;;;;;;;;16.60;99.90;;;;;;5087901;28;19943;-86
2021/09/25 06:25:33;;;;;;;;;;;16.50;99.90;;;;;;5084326;28;20385;-87
2021/09/25 06:27:59;;;;;;;;;;;16.70;99.90;;;;;;5084313;28;19940;-86
2021/09/25 06:30:26;;;;;;;;;;;16.60;99.90;;;;;;5084604;28;19962;-86
2021/09/25 06:32:52;;;;;;;;;;;16.70;99.90;;;;;;5087375;28;20378;-86
2021/09/25 06:35:20;;;;;;;;;;;16.70;99.90;;;;;;5086431;28;19953;-85
2021/09/25 06:37:47;;;;;;;;;;;16.70;99.90;;;;;;5099194;28;19942;-87
2021/09/25 06:40:14;;;;;;;;;;;16.70;99.90;;;;;;5100536;28;19943;-86
2021/09/25 06:42:41;;;;;;;;;;;16.80;99.90;;;;;;5095243;28;19943;-86
2021/09/25 06:45:08;;;;;;;;;;;16.80;99.90;;;;;;5088748;28;20396;-88
2021/09/25 06:47:35;;;;;;;;;;;16.80;99.90;;;;;;5091441;28;20293;-87
2021/09/25 06:50:01;;;;;;;;;;;16.70;99.90;;;;;;5095975;28;19983;-84
2021/09/25 06:52:29;;;;;;;;;;;16.70;99.90;;;;;;5089165;28;19940;-87
2021/09/25 06:54:56;;;;;;;;;;;16.80;99.90;;;;;;5087198;28;19987;-85
2021/09/25 06:57:22;;;;;;;;;;;16.80;99.90;;;;;;5086253;28;19963;-86
2021/09/25 06:59:49;;;;;;;;;;;16.90;99.90;;;;;;5085852;28;19959;-87
2021/09/25 07:02:16;;;;;;;;;;;16.90;99.90;;;;;;5085897;28;19940;-87
2021/09/25 07:04:42;;;;;;;;;;;16.90;99.90;;;;;;5086677;28;20303;-86
2021/09/25 07:07:09;;;;;;;;;;;16.90;99.90;;;;;;5090312;28;20326;-86
2021/09/25 07:09:39;;;;;;;;;;;16.90;99.90;;;;;;5098368;28;19956;-85
2021/09/25 07:12:05;;;;;;;;;;;16.90;99.90;;;;;;5097379;28;20001;-86
2021/09/25 07:14:32;;;;;;;;;;;16.90;99.90;;;;;;5092187;28;19949;-85
2021/09/25 07:16:58;;;;;;;;;;;16.90;99.90;;;;;;5087676;28;19974;-86
2021/09/25 07:19:25;;;;;;;;;;;16.90;99.90;;;;;;5087183;28;19958;-86
2021/09/25 07:21:51;;;;;;;;;;;17.00;99.90;;;;;;5088281;28;19940;-87
2021/09/25 07:24:18;;;;;;;;;;;17.00;99.90;;;;;;5088706;28;19939;-85
2021/09/25 07:26:45;;;;;;;;;;;17.00;99.90;;;;;;5087536;28;19957;-85
2021/09/25 07:29:12;;;;;;;;;;;17.00;99.90;;;;;;5089328;28;20012;-85
2021/09/25 07:31:38;;;;;;;;;;;17.10;99.90;;;;;;5089699;28;19942;-87
2021/09/25 07:34:05;;;;;;;;;;;17.00;99.90;;;;;;5089215;28;19993;-86
2021/09/25 07:36:31;;;;;;;;;;;17.00;99.90;;;;;;5087864;28;19954;-87
2021/09/25 07:38:58;;;;;;;;;;;17.20;99.90;;;;;;5087293;28;19964;-87
2021/09/25 07:41:24;;;;;;;;;;;17.30;99.90;;;;;;5086637;28;19943;-87
2021/09/25 07:43:53;;;;;;;;;;;17.30;99.90;;;;;;5092849;28;19964;-85
2021/09/25 07:46:19;;;;;;;;;;;17.40;99.90;;;;;;5098758;28;19945;-86
2021/09/25 07:48:46;;;;;;;;;;;17.50;99.90;;;;;;5099284;28;19964;-86
2021/09/25 07:51:12;;;;;;;;;;;17.50;99.90;;;;;;5088474;28;20013;-86
2021/09/25 07:53:39;;;;;;;;;;;17.50;99.90;;;;;;5086731;28;20296;-87
2021/09/25 07:56:06;;;;;;;;;;;17.60;99.90;;;;;;5087401;28;20012;-86
2021/09/25 07:58:32;;;;;;;;;;;17.60;99.90;;;;;;5089558;28;19942;-85
2021/09/25 08:01:00;;;;;;;;;;;17.70;99.90;;;;;;5088540;28;19941;-84
2021/09/25 08:03:26;;;;;;;;;;;17.60;99.90;;;;;;5097947;28;19942;-84
2021/09/25 08:05:53;;;;;;;;;;;17.70;99.90;;;;;;5100432;28;19940;-87
2021/09/25 08:08:19;;;;;;;;;;;17.70;99.90;;;;;;5094337;28;19939;-87
2021/09/25 08:10:49;;;;;;;;;;;17.70;99.90;;;;;;5089302;28;20302;-87
2021/09/25 08:13:15;;;;;;;;;;;17.80;99.90;;;;;;5086883;28;19972;-87
2021/09/25 08:15:44;;;;;;;;;;;17.80;99.90;;;;;;5092034;28;19944;-85
2021/09/25 08:18:13;;;;;;;;;;;17.80;99.90;;;;;;5086915;28;19946;-88
2021/09/25 08:20:39;;;;;;;;;;;17.80;99.90;;;;;;5086231;28;19969;-87
2021/09/25 08:23:06;;;;;;;;;;;17.90;99.90;;;;;;5085817;28;19992;-86
2021/09/25 08:25:32;;;;;;;;;;;17.80;99.90;;;;;;5086157;28;20468;-86
2021/09/25 08:27:59;;;;;;;;;;;17.90;99.90;;;;;;5085978;28;20408;-87
2021/09/25 08:30:25;;;;;;;;;;;17.90;99.90;;;;;;5086073;28;19960;-87
2021/09/25 08:32:52;;;;;;;;;;;19.70;99.90;;;;;;5085790;28;19970;-86
2021/09/25 08:35:21;;;;;;;;;;;17.90;99.90;;;;;;5088919;28;20409;-87
2021/09/25 08:37:48;;;;;;;;;;;18.00;99.90;;;;;;5087620;28;19961;-87
2021/09/25 08:40:19;;;;;;;;;;;18.10;99.90;;;;;;5087965;28;19955;-87
2021/09/25 08:42:46;;;;;;;;;;;19.60;99.90;;;;;;5089636;28;19940;-87
2021/09/25 08:45:12;;;;;;;;;;;17.90;99.90;;;;;;5097614;28;19940;-85
2021/09/25 08:47:39;;;;;;;;;;;18.00;99.90;;;;;;5099948;28;19941;-86
2021/09/25 08:50:07;;;;;;;;;;;17.90;99.90;;;;;;5098446;28;19967;-85
2021/09/25 08:52:35;;;;;;;;;;;17.90;99.90;;;;;;5091043;28;19986;-87
2021/09/25 08:55:01;;;;;;;;;;;17.90;99.90;;;;;;5086795;28;19953;-86
2021/09/25 08:57:28;;;;;;;;;;;19.50;99.90;;;;;;5084548;28;19952;-86
2021/09/25 08:59:54;;;;;;;;;;;17.70;99.90;;;;;;5085418;28;20016;-86
2021/09/25 09:02:22;;;;;;;;;;;17.70;99.90;;;;;;5086073;28;19937;-86
2021/09/25 09:04:50;;;;;;;;;;;20.50;99.90;;;;;;5085635;28;19949;-87
2021/09/25 09:07:17;;;;;;;;;;;17.90;99.90;;;;;;5085272;28;20467;-86
2021/09/25 09:09:45;;;;;;;;;;;18.00;99.90;;;;;;5089014;28;19963;-85
2021/09/25 09:12:12;;;;;;;;;;;18.00;99.90;;;;;;5087037;28;19938;-86
2021/09/25 09:14:43;;;;;;;;;;;18.10;99.90;;;;;;5085251;28;19937;-85
2021/09/25 09:17:09;;;;;;;;;;;18.20;99.90;;;;;;5086743;28;19952;-85
2021/09/25 09:19:36;;;;;;;;;;;18.40;99.90;;;;;;5086201;28;20001;-85
2021/09/25 09:22:04;;;;;;;;;;;18.30;99.90;;;;;;5086200;28;19985;-86
2021/09/25 09:24:41;;;;;;;;;;;18.30;99.90;;;;;;5092629;28;19941;-87
2021/09/25 09:27:13;;;;;;;;;;;18.20;99.90;;;;;;5093520;28;19939;-87
2021/09/25 09:29:40;;;;;;;;;;;18.10;99.90;;;;;;5091011;28;19960;-86
2021/09/25 09:32:08;;;;;;;;;;;18.10;99.90;;;;;;5086970;28;19940;-88
2021/09/25 09:34:38;;;;;;;;;;;18.20;99.90;;;;;;5090421;28;19940;-86
2021/09/25 09:37:11;;;;;;;;;;;18.10;99.90;;;;;;5090760;28;20092;-86
2021/09/25 09:39:37;;;;;;;;;;;18.20;99.90;;;;;;5095351;28;19940;-87
2021/09/25 09:42:04;;;;;;;;;;;18.20;99.90;;;;;;5091683;28;19945;-87
2021/09/25 09:44:33;;;;;;;;;;;18.20;99.90;;;;;;5087614;28;19997;-87
2021/09/25 09:47:02;;;;;;;;;;;18.20;99.90;;;;;;5085088;28;20328;-87
2021/09/25 09:49:29;;;;;;;;;;;18.20;99.90;;;;;;5085754;28;19965;-86
2021/09/25 09:51:56;;;;;;;;;;;18.10;99.90;;;;;;5084768;28;19942;-87
2021/09/25 09:54:23;;;;;;;;;;;18.00;99.90;;;;;;5084737;28;19942;-85
2021/09/25 09:56:51;;;;;;;;;;;18.10;99.90;;;;;;5084856;28;20000;-86
2021/09/25 09:59:18;;;;;;;;;;;18.10;99.90;;;;;;5089787;28;19960;-86
2021/09/25 10:01:46;;;;;;;;;;;18.10;99.90;;;;;;5095569;28;19966;-86
2021/09/25 10:04:13;;;;;;;;;;;18.10;99.90;;;;;;5083989;28;19996;-86
2021/09/25 10:06:39;;;;;;;;;;;18.10;99.90;;;;;;5083787;28;20016;-86
2021/09/25 10:09:07;;;;;;;;;;;18.20;99.90;;;;;;5089386;28;19962;-85
2021/09/25 10:11:34;;;;;;;;;;;19.00;99.90;;;;;;5086950;28;20053;-86
2021/09/25 10:14:01;;;;;;;;;;;18.00;99.90;;;;;;5087395;28;19965;-86
2021/09/25 10:16:28;;;;;;;;;;;17.90;99.90;;;;;;5096586;28;19976;-87
2021/09/25 10:18:56;;;;;;;;;;;18.00;99.90;;;;;;5097531;28;19958;-84
2021/09/25 10:21:24;;;;;;;;;;;17.90;99.90;;;;;;5091179;28;19977;-87
2021/09/25 10:23:56;;;;;;;;;;;17.90;99.90;;;;;;5084712;28;19939;-87
2021/09/25 10:26:23;;;;;;;;;;;18.10;99.90;;;;;;5085632;28;19938;-86
2021/09/25 10:31:31;;;;;;;;;;;18.00;99.90;;;;;;5105142;28;19945;-83
2021/09/25 10:34:10;;;;;;;;;;;18.10;99.90;;;;;;5106217;28;20018;-83
2021/09/25 10:36:37;;;;;;;;;;;18.20;99.90;;;;;;5105208;28;20450;-84
2021/09/25 10:39:15;;;;;;;;;;;18.30;99.90;;;;;;5104810;28;20436;-83
2021/09/25 10:41:42;;;;;;;;;;;18.20;99.90;;;;;;5103897;28;19944;-83
2021/09/25 10:44:23;;;;;;;;;;;18.20;99.90;;;;;;5104090;28;19942;-84
2021/09/25 10:46:49;;;;;;;;;;;18.20;99.90;;;;;;5104290;28;19940;-84
2021/09/25 10:49:17;;;;;;;;;;;18.20;99.90;;;;;;5104675;28;20005;-84
2021/09/25 10:51:46;;;;;;;;;;;18.30;99.90;;;;;;5103982;28;19942;-83
2021/09/25 10:54:13;;;;;;;;;;;18.50;99.90;;;;;;5104324;28;19991;-83
2021/09/25 10:56:45;;;;;;;;;;;18.60;99.90;;;;;;5104134;28;19953;-83
2021/09/25 10:59:12;;;;;;;;;;;18.70;99.90;;;;;;5104600;28;19930;-83
2021/09/25 11:01:39;;;;;;;;;;;18.70;99.90;;;;;;5104984;28;19945;-83
2021/09/25 11:04:07;;;;;;;;;;;18.80;99.90;;;;;;5104489;28;19956;-83
2021/09/25 11:06:51;;;;;;;;;;;19.00;99.90;;;;;;5103648;28;19997;-83
2021/09/25 11:09:25;;;;;;;;;;;19.00;99.90;;;;;;5102089;28;19955;-82
2021/09/25 11:11:52;;;;;;;;;;;19.00;99.90;;;;;;5104009;28;19920;-82
2021/09/25 11:14:36;;;;;;;;;;;19.00;99.90;;;;;;5104139;28;19944;-82
2021/09/25 11:17:04;;;;;;;;;;;19.00;99.90;;;;;;5094590;28;19950;-82
2021/09/25 11:19:32;;;;;;;;;;;19.00;99.90;;;;;;5104551;28;19965;-83
2021/09/25 11:22:00;;;;;;;;;;;19.00;99.90;;;;;;5105124;28;19994;-83
2021/09/25 11:24:29;;;;;;;;;;;19.00;99.90;;;;;;5107409;28;19995;-83
2021/09/25 11:26:55;;;;;;;;;;;19.10;99.90;;;;;;5108431;28;19984;-83
2021/09/25 11:29:22;;;;;;;;;;;19.20;99.90;;;;;;5107420;28;19954;-83
2021/09/25 11:31:48;;;;;;;;;;;19.30;99.90;;;;;;5108459;28;19941;-83
2021/09/25 11:34:22;;;;;;;;;;;19.40;99.90;;;;;;5108164;28;19952;-83
2021/09/25 11:36:49;;;;;;;;;;;19.60;99.90;;;;;;5107919;28;19954;-82
2021/09/25 11:39:20;;;;;;;;;;;19.60;99.90;;;;;;5107954;28;19954;-82
2021/09/25 11:42:07;;;;;;;;;;;19.60;99.90;;;;;;5108257;28;19943;-84
2021/09/25 11:44:40;;;;;;;;;;;19.60;99.90;;;;;;5107904;28;19943;-84
2021/09/25 11:47:06;;;;;;;;;;;19.60;99.90;;;;;;5107358;28;19997;-83
2021/09/25 11:49:34;;;;;;;;;;;19.60;99.90;;;;;;5108593;28;19957;-83
2021/09/25 11:52:01;;;;;;;;;;;19.70;99.90;;;;;;5109171;28;19940;-83
2021/09/25 11:54:27;;;;;;;;;;;19.80;99.90;;;;;;5112374;28;20063;-83
2021/09/25 11:56:55;;;;;;;;;;;19.90;99.90;;;;;;5111254;28;19952;-83
2021/09/25 11:59:23;;;;;;;;;;;20.00;99.90;;;;;;5111057;28;19985;-83
2021/09/25 12:01:49;;;;;;;;;;;19.90;99.90;;;;;;5109413;28;19940;-82
2021/09/25 12:04:16;;;;;;;;;;;20.00;99.90;;;;;;5109887;28;19957;-84
2021/09/25 12:06:51;;;;;;;;;;;20.00;99.90;;;;;;5108579;28;19949;-83
2021/09/25 12:09:17;;;;;;;;;;;20.00;99.90;;;;;;5110657;28;20320;-84
2021/09/25 12:11:43;;;;;;;;;;;20.10;99.90;;;;;;5107799;28;20385;-83
2021/09/25 12:14:11;;;;;;;;;;;20.20;99.90;;;;;;5108197;28;19945;-83
2021/09/25 12:16:38;;;;;;;;;;;20.20;99.90;;;;;;5108761;28;19988;-84
2021/09/25 12:19:04;;;;;;;;;;;20.10;99.90;;;;;;5108521;28;19956;-83
2021/09/25 12:21:31;;;;;;;;;;;20.20;99.90;;;;;;5110726;28;19941;-82
2021/09/25 12:23:58;;;;;;;;;;;20.20;99.90;;;;;;5109854;28;20382;-82
2021/09/25 12:26:26;;;;;;;;;;;20.10;99.90;;;;;;5109408;28;19941;-83
2021/09/25 12:28:53;;;;;;;;;;;20.10;99.90;;;;;;5108805;28;19951;-83
2021/09/25 12:31:24;;;;;;;;;;;20.10;99.90;;;;;;5108587;28;19948;-84
2021/09/25 12:33:54;;;;;;;;;;;20.10;99.90;;;;;;5108703;28;19942;-82
2021/09/25 12:36:21;;;;;;;;;;;20.10;99.90;;;;;;5110644;28;20434;-83
2021/09/25 12:38:47;;;;;;;;;;;20.20;99.90;;;;;;5108581;28;19948;-83
2021/09/25 12:41:15;;;;;;;;;;;20.30;99.90;;;;;;5108283;28;19969;-83
2021/09/25 12:43:43;;;;;;;;;;;20.20;99.90;;;;;;5108418;28;19962;-83
2021/09/25 12:46:14;;;;;;;;;;;20.30;99.90;;;;;;5108424;28;19938;-83
2021/09/25 12:49:01;;;;;;;;;;;20.20;99.90;;;;;;5102945;28;20404;-83
2021/09/25 12:51:28;;;;;;;;;;;20.10;99.90;;;;;;5111674;28;19961;-83
2021/09/25 12:53:55;;;;;;;;;;;20.00;99.90;;;;;;5111251;28;19965;-83
2021/09/25 12:56:21;;;;;;;;;;;20.00;99.90;;;;;;5109780;28;19940;-83
2021/09/25 12:58:51;;;;;;;;;;;20.00;99.90;;;;;;5109492;28;19974;-83
2021/09/25 13:01:27;;;;;;;;;;;19.90;99.90;;;;;;5109733;28;19956;-82
2021/09/25 13:03:54;;;;;;;;;;;20.00;99.90;;;;;;5107959;28;19940;-83
2021/09/25 13:06:23;;;;;;;;;;;20.00;99.90;;;;;;5106547;28;19951;-83
2021/09/25 13:08:57;;;;;;;;;;;20.00;99.90;;;;;;5107634;28;19941;-82
2021/09/25 13:11:23;;;;;;;;;;;20.00;99.90;;;;;;5106496;28;20051;-82
2021/09/25 13:14:03;;;;;;;;;;;20.00;99.90;;;;;;5113279;28;19964;-81
2021/09/25 13:16:30;;;;;;;;;;;20.00;99.90;;;;;;5118582;28;19934;-82
2021/09/25 13:18:59;;;;;;;;;;;19.90;99.90;;;;;;5119650;28;19954;-81
2021/09/25 13:21:27;;;;;;;;;;;20.00;99.90;;;;;;5117277;28;19944;-82
2021/09/25 13:23:58;;;;;;;;;;;20.00;99.90;;;;;;5116005;28;19947;-81
2021/09/25 13:26:24;;;;;;;;;;;20.00;99.90;;;;;;5115435;28;19986;-82
2021/09/25 13:28:51;;;;;;;;;;;20.00;99.90;;;;;;5113824;28;19939;-82
2021/09/25 13:31:17;;;;;;;;;;;20.10;99.90;;;;;;5111910;28;19961;-82
2021/09/25 13:33:44;;;;;;;;;;;20.10;99.90;;;;;;5111832;28;19950;-82
2021/09/25 13:36:10;;;;;;;;;;;20.10;99.90;;;;;;5109211;28;19947;-82
2021/09/25 13:38:38;;;;;;;;;;;20.20;99.90;;;;;;5112128;28;19960;-82
2021/09/25 13:41:05;;;;;;;;;;;20.20;99.90;;;;;;5110889;28;20023;-82
2021/09/25 13:43:32;;;;;;;;;;;20.30;99.90;;;;;;5108348;28;19949;-82
2021/09/25 13:45:58;;;;;;;;;;;20.30;99.90;;;;;;5105134;28;19945;-81
2021/09/25 13:48:24;;;;;;;;;;;20.30;99.90;;;;;;5105513;28;19948;-83
2021/09/25 13:50:51;;;;;;;;;;;20.20;99.90;;;;;;5105735;28;20049;-83
2021/09/25 13:53:18;;;;;;;;;;;20.30;99.90;;;;;;5104904;28;20465;-83
2021/09/25 13:55:46;;;;;;;;;;;20.30;99.90;;;;;;5105468;28;19938;-82
2021/09/25 13:58:12;;;;;;;;;;;20.30;99.90;;;;;;5105075;28;19955;-83
2021/09/25 14:00:39;;;;;;;;;;;20.30;99.90;;;;;;5104643;28;19957;-82
2021/09/25 14:03:06;;;;;;;;;;;20.30;99.90;;;;;;5105655;28;19971;-83
2021/09/25 14:05:32;;;;;;;;;;;20.20;99.90;;;;;;5104769;28;19961;-83
2021/09/25 14:07:59;;;;;;;;;;;20.20;99.90;;;;;;5105645;28;19941;-83
2021/09/25 14:10:25;;;;;;;;;;;20.20;99.90;;;;;;5108978;28;19958;-82
2021/09/25 14:12:53;;;;;;;;;;;20.10;99.90;;;;;;5114897;28;20009;-82
2021/09/25 14:15:20;;;;;;;;;;;20.10;99.90;;;;;;5113803;28;20380;-82
2021/09/25 14:17:46;;;;;;;;;;;20.10;99.90;;;;;;5114040;28;19960;-82
2021/09/25 14:20:13;;;;;;;;;;;20.20;99.90;;;;;;5106598;28;19956;-82
2021/09/25 14:22:39;;;;;;;;;;;20.20;99.90;;;;;;5118356;28;19928;-82
2021/09/25 14:25:06;;;;;;;;;;;20.20;99.90;;;;;;5118158;28;19933;-82
2021/09/25 14:27:32;;;;;;;;;;;20.10;99.90;;;;;;5118934;28;19943;-82
2021/09/25 14:30:00;;;;;;;;;;;20.10;99.90;;;;;;5118544;28;19951;-82
2021/09/25 14:32:27;;;;;;;;;;;20.20;99.90;;;;;;5117223;28;19940;-83
2021/09/25 14:34:53;;;;;;;;;;;20.20;99.90;;;;;;5118112;28;19947;-82
2021/09/25 14:37:20;;;;;;;;;;;20.30;99.90;;;;;;5114230;28;19943;-83
2021/09/25 14:39:47;;;;;;;;;;;20.40;99.90;;;;;;5108799;28;19965;-81
2021/09/25 14:42:14;;;;;;;;;;;20.40;99.90;;;;;;5105671;28;20359;-82
2021/09/25 14:44:41;;;;;;;;;;;20.50;99.90;;;;;;5106343;28;19928;-82
2021/09/25 14:47:08;;;;;;;;;;;20.40;99.90;;;;;;5104879;28;19948;-82
2021/09/25 14:49:35;;;;;;;;;;;20.30;99.90;;;;;;5105161;28;20452;-82
2021/09/25 14:52:04;;;;;;;;;;;20.20;99.90;;;;;;5104891;28;19941;-82
2021/09/25 14:54:30;;;;;;;;;;;20.10;99.90;;;;;;5105085;28;19943;-83
2021/09/25 14:56:57;;;;;;;;;;;20.00;99.90;;;;;;5109460;28;19967;-83
2021/09/25 14:59:23;;;;;;;;;;;20.00;99.90;;;;;;5110741;28;19962;-83
2021/09/25 15:01:50;;;;;;;;;;;20.00;99.90;;;;;;5109714;28;19942;-83
2021/09/25 15:04:17;;;;;;;;;;;20.00;99.90;;;;;;5113015;28;20115;-82
2021/09/25 15:06:46;;;;;;;;;;;20.00;99.90;;;;;;5109745;28;20430;-82
2021/09/25 15:09:13;;;;;;;;;;;20.00;99.90;;;;;;5109992;28;20035;-82
2021/09/25 15:11:41;;;;;;;;;;;20.00;99.90;;;;;;5110347;28;19943;-82
2021/09/25 15:14:07;;;;;;;;;;;20.00;99.90;;;;;;5109063;28;19944;-81
2021/09/25 15:16:34;;;;;;;;;;;19.90;99.90;;;;;;5110526;28;19942;-82
2021/09/25 15:19:01;;;;;;;;;;;19.90;99.90;;;;;;5111821;28;19997;-82
2021/09/25 15:21:29;;;;;;;;;;;19.90;99.90;;;;;;5111220;28;19941;-82
2021/09/25 15:23:55;;;;;;;;;;;19.90;99.90;;;;;;5109888;28;19944;-82
2021/09/25 15:26:22;;;;;;;;;;;20.00;99.90;;;;;;5109403;28;19941;-83
2021/09/25 15:28:49;;;;;;;;;;;20.00;99.90;;;;;;5108776;28;19959;-83
2021/09/25 15:31:15;;;;;;;;;;;20.00;99.90;;;;;;5109170;28;20476;-83
2021/09/25 15:33:42;;;;;;;;;;;20.00;99.90;;;;;;5109481;28;20264;-83
2021/09/25 15:36:08;;;;;;;;;;;20.10;99.90;;;;;;5107504;28;19943;-82
2021/09/25 15:38:36;;;;;;;;;;;20.00;99.90;;;;;;5107669;28;19958;-82
2021/09/25 15:41:02;;;;;;;;;;;20.00;99.90;;;;;;5107167;28;19954;-83
2021/09/25 15:43:29;;;;;;;;;;;19.90;99.90;;;;;;5107405;28;19995;-83
2021/09/25 15:45:55;;;;;;;;;;;19.90;99.90;;;;;;5107420;28;19962;-82
2021/09/25 15:48:24;;;;;;;;;;;19.80;99.90;;;;;;5109044;28;19944;-82
2021/09/25 15:50:50;;;;;;;;;;;19.80;99.90;;;;;;5115812;28;19962;-82
2021/09/25 15:53:17;;;;;;;;;;;19.70;99.90;;;;;;5116669;28;19949;-82
2021/09/25 15:55:45;;;;;;;;;;;19.60;99.90;;;;;;5121124;28;19942;-82
2021/09/25 15:58:11;;;;;;;;;;;19.50;99.90;;;;;;5120251;28;19939;-82
2021/09/25 16:00:39;;;;;;;;;;;19.50;99.90;;;;;;5120919;28;19960;-82
2021/09/25 16:03:07;;;;;;;;;;;19.50;99.90;;;;;;5121805;28;19977;-82
2021/09/25 16:05:33;;;;;;;;;;;19.40;99.90;;;;;;5118392;28;19944;-82
2021/09/25 16:08:00;;;;;;;;;;;19.40;99.90;;;;;;5106871;28;19963;-82
2021/09/25 16:10:26;;;;;;;;;;;19.40;99.90;;;;;;5117141;28;19949;-82
2021/09/25 16:12:54;;;;;;;;;;;19.40;99.90;;;;;;5121338;28;19927;-82
2021/09/25 16:15:20;;;;;;;;;;;19.30;99.90;;;;;;5120753;28;20007;-81
2021/09/25 16:17:47;;;;;;;;;;;19.30;99.90;;;;;;5120885;28;19928;-81
2021/09/25 16:20:14;;;;;;;;;;;19.30;99.90;;;;;;5120217;28;19952;-83